CheckWX is a tool to help pilots better visualize weather data.  It is not intended as a substitute for an official pre-flight weather briefing.

06:17:34 UTC

KDEN METAR
Denver International Airport
Denver, Colorado, USA
Current

25 mins ago

KDEN 180553Z 24006KT 10SM FEW130 SCT250 08/M03 A2996 RMK AO2 SLP111 T00831033 10117 20072 58013
Observed
Nov-18 @ 05:53 UTC
Wind
  • 240° at 6 KTS
Visibility
10 SM
Flight Rules
VFR
Cloud Levels
  • Few at 13,000' AGL
  • Scattered at 25,000' AGL
Temperature
C / 46°F
Dewpoint
-3°C / 27°F
Humidity
46%
Altimeter
29.96" Hg
Pressure
1014.52 hPa
Previous

1 hour ago

KDEN 180453Z 29011KT 10SM BKN130 BKN250 11/M03 A2999 RMK AO2 SLP119 T01111033
Observed
Nov-18 @ 04:53 UTC
Wind
  • 290° at 11 KTS
Visibility
10 SM
Flight Rules
VFR
Cloud Levels
  • Broken at 13,000' AGL
  • Broken at 25,000' AGL
Temperature
11°C / 52°F
Dewpoint
-3°C / 27°F
Humidity
38%
Altimeter
29.99" Hg
Pressure
1015.62 hPa
Previous

2 hours ago

KDEN 180353Z 23004KT 10SM SCT150 BKN250 08/M04 A3000 RMK AO2 SLP137 T00831039
Observed
Nov-18 @ 03:53 UTC
Wind
  • 230° at 4 KTS
Visibility
10 SM
Flight Rules
VFR
Cloud Levels
  • Scattered at 15,000' AGL
  • Broken at 25,000' AGL
Temperature
C / 46°F
Dewpoint
-4°C / 25°F
Humidity
43%
Altimeter
30" Hg
Pressure
1015.92 hPa